sensor_id;sensor_type;location;lat;lon;timestamp;P1;durP1;ratioP1;P2;durP2;ratioP2
52041;SDS011;38052;45.944;13.624;2023-08-17T00:02:13;9.90;;;7.00;;
52041;SDS011;38052;45.944;13.624;2023-08-17T00:04:40;6.60;;;5.80;;
52041;SDS011;38052;45.944;13.624;2023-08-17T00:07:06;10.07;;;6.40;;
52041;SDS011;38052;45.944;13.624;2023-08-17T00:09:33;14.63;;;6.70;;
52041;SDS011;38052;45.944;13.624;2023-08-17T00:11:59;8.45;;;7.40;;
52041;SDS011;38052;45.944;13.624;2023-08-17T00:14:25;7.85;;;7.13;;
52041;SDS011;38052;45.944;13.624;2023-08-17T00:16:51;9.65;;;6.50;;
52041;SDS011;38052;45.944;13.624;2023-08-17T00:19:18;7.22;;;6.53;;
52041;SDS011;38052;45.944;13.624;2023-08-17T00:21:44;9.68;;;6.78;;
52041;SDS011;38052;45.944;13.624;2023-08-17T00:24:11;7.50;;;6.18;;
52041;SDS011;38052;45.944;13.624;2023-08-17T00:26:37;7.43;;;6.72;;
52041;SDS011;38052;45.944;13.624;2023-08-17T00:29:04;7.22;;;6.60;;
52041;SDS011;38052;45.944;13.624;2023-08-17T00:31:30;7.00;;;6.40;;
52041;SDS011;38052;45.944;13.624;2023-08-17T00:33:56;6.97;;;6.00;;
52041;SDS011;38052;45.944;13.624;2023-08-17T00:36:23;6.40;;;5.80;;
52041;SDS011;38052;45.944;13.624;2023-08-17T00:38:49;9.68;;;7.35;;
52041;SDS011;38052;45.944;13.624;2023-08-17T00:41:15;9.57;;;6.28;;
52041;SDS011;38052;45.944;13.624;2023-08-17T00:43:41;8.65;;;6.63;;
52041;SDS011;38052;45.944;13.624;2023-08-17T00:46:08;8.13;;;6.22;;
52041;SDS011;38052;45.944;13.624;2023-08-17T00:48:34;6.97;;;6.28;;
52041;SDS011;38052;45.944;13.624;2023-08-17T00:51:01;7.22;;;6.53;;
52041;SDS011;38052;45.944;13.624;2023-08-17T00:53:28;8.82;;;6.47;;
52041;SDS011;38052;45.944;13.624;2023-08-17T00:55:55;7.20;;;6.40;;
52041;SDS011;38052;45.944;13.624;2023-08-17T00:58:22;8.20;;;7.50;;
52041;SDS011;38052;45.944;13.624;2023-08-17T01:00:48;8.20;;;6.63;;
52041;SDS011;38052;45.944;13.624;2023-08-17T01:03:15;10.73;;;7.13;;
52041;SDS011;38052;45.944;13.624;2023-08-17T01:05:42;7.75;;;7.00;;
52041;SDS011;38052;45.944;13.624;2023-08-17T01:08:09;7.05;;;6.35;;
52041;SDS011;38052;45.944;13.624;2023-08-17T01:10:55;7.93;;;7.03;;
52041;SDS011;38052;45.944;13.624;2023-08-17T01:13:31;7.28;;;6.55;;
52041;SDS011;38052;45.944;13.624;2023-08-17T01:16:02;21.02;;;7.53;;
52041;SDS011;38052;45.944;13.624;2023-08-17T01:18:29;7.72;;;6.90;;
52041;SDS011;38052;45.944;13.624;2023-08-17T01:20:58;6.75;;;6.15;;
52041;SDS011;38052;45.944;13.624;2023-08-17T01:23:24;7.95;;;7.18;;
52041;SDS011;38052;45.944;13.624;2023-08-17T01:25:50;8.55;;;7.72;;
52041;SDS011;38052;45.944;13.624;2023-08-17T01:28:18;7.85;;;7.13;;
52041;SDS011;38052;45.944;13.624;2023-08-17T01:30:55;8.70;;;6.28;;
52041;SDS011;38052;45.944;13.624;2023-08-17T01:33:45;7.07;;;6.47;;
52041;SDS011;38052;45.944;13.624;2023-08-17T01:36:11;7.97;;;6.25;;
52041;SDS011;38052;45.944;13.624;2023-08-17T01:38:39;8.73;;;7.40;;
52041;SDS011;38052;45.944;13.624;2023-08-17T01:41:07;7.32;;;6.63;;
52041;SDS011;38052;45.944;13.624;2023-08-17T01:43:38;8.82;;;6.70;;
52041;SDS011;38052;45.944;13.624;2023-08-17T01:46:04;7.05;;;6.00;;
52041;SDS011;38052;45.944;13.624;2023-08-17T01:48:31;10.75;;;6.60;;
52041;SDS011;38052;45.944;13.624;2023-08-17T01:50:57;6.88;;;5.93;;
52041;SDS011;38052;45.944;13.624;2023-08-17T01:53:24;7.47;;;6.38;;
52041;SDS011;38052;45.944;13.624;2023-08-17T01:55:50;8.10;;;6.80;;
52041;SDS011;38052;45.944;13.624;2023-08-17T01:58:17;8.55;;;7.40;;
52041;SDS011;38052;45.944;13.624;2023-08-17T02:00:44;7.13;;;6.43;;
52041;SDS011;38052;45.944;13.624;2023-08-17T02:03:11;7.72;;;6.53;;
52041;SDS011;38052;45.944;13.624;2023-08-17T02:05:37;7.53;;;6.53;;
52041;SDS011;38052;45.944;13.624;2023-08-17T02:08:04;7.00;;;6.40;;
52041;SDS011;38052;45.944;13.624;2023-08-17T02:10:30;9.32;;;6.80;;
52041;SDS011;38052;45.944;13.624;2023-08-17T02:12:57;11.07;;;6.72;;
52041;SDS011;38052;45.944;13.624;2023-08-17T02:15:23;7.75;;;7.05;;
52041;SDS011;38052;45.944;13.624;2023-08-17T02:17:50;8.07;;;7.35;;
52041;SDS011;38052;45.944;13.624;2023-08-17T02:20:16;8.32;;;6.53;;
52041;SDS011;38052;45.944;13.624;2023-08-17T02:22:43;7.93;;;6.97;;
52041;SDS011;38052;45.944;13.624;2023-08-17T02:25:09;8.05;;;6.95;;
52041;SDS011;38052;45.944;13.624;2023-08-17T02:27:36;8.20;;;6.82;;
52041;SDS011;38052;45.944;13.624;2023-08-17T02:30:03;8.75;;;7.38;;
52041;SDS011;38052;45.944;13.624;2023-08-17T02:32:29;7.72;;;6.88;;
52041;SDS011;38052;45.944;13.624;2023-08-17T02:34:56;9.93;;;7.57;;
52041;SDS011;38052;45.944;13.624;2023-08-17T02:37:23;7.30;;;6.60;;
52041;SDS011;38052;45.944;13.624;2023-08-17T02:39:49;9.25;;;7.18;;
52041;SDS011;38052;45.944;13.624;2023-08-17T02:42:15;7.57;;;6.88;;
52041;SDS011;38052;45.944;13.624;2023-08-17T02:44:41;7.88;;;6.50;;
52041;SDS011;38052;45.944;13.624;2023-08-17T02:47:08;8.25;;;7.45;;
52041;SDS011;38052;45.944;13.624;2023-08-17T02:49:34;9.57;;;7.00;;
52041;SDS011;38052;45.944;13.624;2023-08-17T02:52:00;10.35;;;7.55;;
52041;SDS011;38052;45.944;13.624;2023-08-17T02:54:27;7.13;;;6.45;;
52041;SDS011;38052;45.944;13.624;2023-08-17T02:56:53;8.90;;;6.53;;
52041;SDS011;38052;45.944;13.624;2023-08-17T02:59:19;8.35;;;7.10;;
52041;SDS011;38052;45.944;13.624;2023-08-17T03:01:46;7.05;;;6.38;;
52041;SDS011;38052;45.944;13.624;2023-08-17T03:04:13;8.50;;;7.65;;
52041;SDS011;38052;45.944;13.624;2023-08-17T03:06:39;9.23;;;7.75;;
52041;SDS011;38052;45.944;13.624;2023-08-17T03:09:06;7.15;;;6.45;;
52041;SDS011;38052;45.944;13.624;2023-08-17T03:11:32;8.40;;;7.10;;
52041;SDS011;38052;45.944;13.624;2023-08-17T03:13:59;7.45;;;6.55;;
52041;SDS011;38052;45.944;13.624;2023-08-17T03:16:26;8.68;;;6.45;;
52041;SDS011;38052;45.944;13.624;2023-08-17T03:18:52;9.20;;;6.80;;
52041;SDS011;38052;45.944;13.624;2023-08-17T03:21:18;6.93;;;6.15;;
52041;SDS011;38052;45.944;13.624;2023-08-17T03:23:45;7.78;;;6.97;;
52041;SDS011;38052;45.944;13.624;2023-08-17T03:26:11;11.05;;;6.60;;
52041;SDS011;38052;45.944;13.624;2023-08-17T03:28:38;8.95;;;6.85;;
52041;SDS011;38052;45.944;13.624;2023-08-17T03:31:04;9.23;;;7.18;;
52041;SDS011;38052;45.944;13.624;2023-08-17T03:33:32;8.05;;;6.95;;
52041;SDS011;38052;45.944;13.624;2023-08-17T03:35:58;7.30;;;6.57;;
52041;SDS011;38052;45.944;13.624;2023-08-17T03:38:25;9.48;;;7.15;;
52041;SDS011;38052;45.944;13.624;2023-08-17T03:40:51;8.45;;;7.55;;
52041;SDS011;38052;45.944;13.624;2023-08-17T03:43:18;7.85;;;7.15;;
52041;SDS011;38052;45.944;13.624;2023-08-17T03:45:44;7.93;;;7.22;;
52041;SDS011;38052;45.944;13.624;2023-08-17T03:48:10;9.32;;;7.03;;
52041;SDS011;38052;45.944;13.624;2023-08-17T03:50:37;8.68;;;7.75;;
52041;SDS011;38052;45.944;13.624;2023-08-17T03:53:04;8.38;;;7.05;;
52041;SDS011;38052;45.944;13.624;2023-08-17T03:55:30;10.77;;;7.18;;
52041;SDS011;38052;45.944;13.624;2023-08-17T03:57:57;8.77;;;7.60;;
52041;SDS011;38052;45.944;13.624;2023-08-17T04:00:23;8.32;;;7.53;;
52041;SDS011;38052;45.944;13.624;2023-08-17T04:02:49;10.90;;;8.25;;
52041;SDS011;38052;45.944;13.624;2023-08-17T04:05:17;8.18;;;7.47;;
52041;SDS011;38052;45.944;13.624;2023-08-17T04:07:43;9.60;;;6.93;;
52041;SDS011;38052;45.944;13.624;2023-08-17T04:10:10;13.68;;;8.07;;
52041;SDS011;38052;45.944;13.624;2023-08-17T04:12:36;8.45;;;7.55;;
52041;SDS011;38052;45.944;13.624;2023-08-17T04:15:03;8.73;;;7.60;;
52041;SDS011;38052;45.944;13.624;2023-08-17T04:17:30;8.20;;;7.50;;
52041;SDS011;38052;45.944;13.624;2023-08-17T04:19:56;9.98;;;7.13;;
52041;SDS011;38052;45.944;13.624;2023-08-17T04:22:23;10.43;;;7.22;;
52041;SDS011;38052;45.944;13.624;2023-08-17T04:24:50;7.97;;;7.20;;
52041;SDS011;38052;45.944;13.624;2023-08-17T04:27:16;8.30;;;7.40;;
52041;SDS011;38052;45.944;13.624;2023-08-17T04:29:42;7.82;;;7.20;;
52041;SDS011;38052;45.944;13.624;2023-08-17T04:32:13;9.05;;;8.20;;
52041;SDS011;38052;45.944;13.624;2023-08-17T04:34:41;9.25;;;7.20;;
52041;SDS011;38052;45.944;13.624;2023-08-17T04:37:07;7.78;;;6.80;;
52041;SDS011;38052;45.944;13.624;2023-08-17T04:39:34;9.35;;;7.88;;
52041;SDS011;38052;45.944;13.624;2023-08-17T04:42:00;10.43;;;7.78;;
52041;SDS011;38052;45.944;13.624;2023-08-17T04:44:27;8.43;;;7.25;;
52041;SDS011;38052;45.944;13.624;2023-08-17T04:46:53;9.02;;;7.82;;
52041;SDS011;38052;45.944;13.624;2023-08-17T04:49:20;7.18;;;6.57;;
52041;SDS011;38052;45.944;13.624;2023-08-17T04:51:46;7.47;;;6.78;;
52041;SDS011;38052;45.944;13.624;2023-08-17T04:54:12;10.43;;;7.95;;
52041;SDS011;38052;45.944;13.624;2023-08-17T04:56:39;9.25;;;6.90;;
52041;SDS011;38052;45.944;13.624;2023-08-17T04:59:05;7.65;;;6.75;;
52041;SDS011;38052;45.944;13.624;2023-08-17T05:01:31;9.07;;;7.22;;
52041;SDS011;38052;45.944;13.624;2023-08-17T05:03:57;10.00;;;7.55;;
52041;SDS011;38052;45.944;13.624;2023-08-17T05:06:23;8.52;;;7.13;;
52041;SDS011;38052;45.944;13.624;2023-08-17T05:08:50;10.85;;;7.80;;
52041;SDS011;38052;45.944;13.624;2023-08-17T05:11:17;9.50;;;7.35;;
52041;SDS011;38052;45.944;13.624;2023-08-17T05:13:43;8.57;;;7.68;;
52041;SDS011;38052;45.944;13.624;2023-08-17T05:16:10;8.73;;;7.50;;
52041;SDS011;38052;45.944;13.624;2023-08-17T05:18:36;8.90;;;7.80;;
52041;SDS011;38052;45.944;13.624;2023-08-17T05:21:02;8.50;;;7.60;;
52041;SDS011;38052;45.944;13.624;2023-08-17T05:23:29;7.75;;;7.05;;
52041;SDS011;38052;45.944;13.624;2023-08-17T05:25:56;9.95;;;7.32;;
52041;SDS011;38052;45.944;13.624;2023-08-17T05:28:22;12.25;;;7.22;;
52041;SDS011;38052;45.944;13.624;2023-08-17T05:30:49;10.48;;;7.30;;
52041;SDS011;38052;45.944;13.624;2023-08-17T05:33:15;10.90;;;7.50;;
52041;SDS011;38052;45.944;13.624;2023-08-17T05:35:42;10.13;;;6.63;;
52041;SDS011;38052;45.944;13.624;2023-08-17T05:38:09;7.60;;;6.75;;
52041;SDS011;38052;45.944;13.624;2023-08-17T05:40:35;8.05;;;7.10;;
52041;SDS011;38052;45.944;13.624;2023-08-17T05:43:01;9.88;;;7.25;;
52041;SDS011;38052;45.944;13.624;2023-08-17T05:45:28;10.98;;;7.47;;
52041;SDS011;38052;45.944;13.624;2023-08-17T05:47:54;7.95;;;7.07;;
52041;SDS011;38052;45.944;13.624;2023-08-17T05:50:20;8.70;;;7.10;;
52041;SDS011;38052;45.944;13.624;2023-08-17T05:52:47;12.20;;;8.38;;
52041;SDS011;38052;45.944;13.624;2023-08-17T05:55:13;12.48;;;8.88;;
52041;SDS011;38052;45.944;13.624;2023-08-17T05:57:40;17.58;;;13.50;;
52041;SDS011;38052;45.944;13.624;2023-08-17T06:00:07;19.05;;;11.50;;
52041;SDS011;38052;45.944;13.624;2023-08-17T06:02:35;13.85;;;8.48;;
52041;SDS011;38052;45.944;13.624;2023-08-17T06:05:02;9.32;;;7.78;;
52041;SDS011;38052;45.944;13.624;2023-08-17T06:07:28;13.57;;;8.10;;
52041;SDS011;38052;45.944;13.624;2023-08-17T06:09:54;8.82;;;7.95;;
52041;SDS011;38052;45.944;13.624;2023-08-17T06:12:21;9.73;;;7.03;;
52041;SDS011;38052;45.944;13.624;2023-08-17T06:14:48;13.05;;;6.47;;
52041;SDS011;38052;45.944;13.624;2023-08-17T06:17:14;9.93;;;6.20;;
52041;SDS011;38052;45.944;13.624;2023-08-17T06:19:40;11.65;;;7.00;;
52041;SDS011;38052;45.944;13.624;2023-08-17T06:22:07;10.23;;;6.43;;
52041;SDS011;38052;45.944;13.624;2023-08-17T06:24:33;11.35;;;6.78;;
52041;SDS011;38052;45.944;13.624;2023-08-17T06:26:59;7.53;;;6.65;;
52041;SDS011;38052;45.944;13.624;2023-08-17T06:29:25;10.55;;;6.22;;
52041;SDS011;38052;45.944;13.624;2023-08-17T06:31:51;8.00;;;7.18;;
52041;SDS011;38052;45.944;13.624;2023-08-17T06:34:17;8.85;;;6.97;;
52041;SDS011;38052;45.944;13.624;2023-08-17T06:36:53;7.90;;;6.18;;
52041;SDS011;38052;45.944;13.624;2023-08-17T06:39:22;19.98;;;6.53;;
52041;SDS011;38052;45.944;13.624;2023-08-17T06:41:49;7.22;;;6.15;;
52041;SDS011;38052;45.944;13.624;2023-08-17T06:44:15;6.88;;;5.97;;
52041;SDS011;38052;45.944;13.624;2023-08-17T06:46:41;7.35;;;6.35;;
52041;SDS011;38052;45.944;13.624;2023-08-17T06:49:08;9.45;;;7.10;;
52041;SDS011;38052;45.944;13.624;2023-08-17T06:51:34;6.88;;;5.82;;
52041;SDS011;38052;45.944;13.624;2023-08-17T06:54:01;9.05;;;6.07;;
52041;SDS011;38052;45.944;13.624;2023-08-17T06:56:27;11.32;;;6.55;;
52041;SDS011;38052;45.944;13.624;2023-08-17T06:58:54;8.38;;;6.03;;
52041;SDS011;38052;45.944;13.624;2023-08-17T07:01:21;7.13;;;5.95;;
52041;SDS011;38052;45.944;13.624;2023-08-17T07:03:47;8.68;;;6.15;;
52041;SDS011;38052;45.944;13.624;2023-08-17T07:06:14;8.70;;;6.90;;
52041;SDS011;38052;45.944;13.624;2023-08-17T07:08:40;11.50;;;6.43;;
52041;SDS011;38052;45.944;13.624;2023-08-17T07:11:07;6.93;;;6.32;;
52041;SDS011;38052;45.944;13.624;2023-08-17T07:13:33;7.00;;;5.68;;
52041;SDS011;38052;45.944;13.624;2023-08-17T07:16:00;7.32;;;5.55;;
52041;SDS011;38052;45.944;13.624;2023-08-17T07:18:26;9.20;;;6.75;;
52041;SDS011;38052;45.944;13.624;2023-08-17T07:20:52;11.02;;;6.13;;
52041;SDS011;38052;45.944;13.624;2023-08-17T07:23:19;7.43;;;5.78;;
52041;SDS011;38052;45.944;13.624;2023-08-17T07:25:46;11.93;;;6.60;;
52041;SDS011;38052;45.944;13.624;2023-08-17T07:28:12;10.10;;;5.97;;
52041;SDS011;38052;45.944;13.624;2023-08-17T07:30:41;7.03;;;6.32;;
52041;SDS011;38052;45.944;13.624;2023-08-17T07:33:08;9.45;;;6.28;;
52041;SDS011;38052;45.944;13.624;2023-08-17T07:35:34;7.22;;;5.90;;
52041;SDS011;38052;45.944;13.624;2023-08-17T07:38:01;7.13;;;6.38;;
52041;SDS011;38052;45.944;13.624;2023-08-17T07:40:27;11.80;;;6.05;;
52041;SDS011;38052;45.944;13.624;2023-08-17T07:42:53;7.63;;;6.25;;
52041;SDS011;38052;45.944;13.624;2023-08-17T07:45:20;7.47;;;6.38;;
52041;SDS011;38052;45.944;13.624;2023-08-17T07:47:46;6.60;;;5.88;;
52041;SDS011;38052;45.944;13.624;2023-08-17T07:50:13;7.47;;;6.03;;
52041;SDS011;38052;45.944;13.624;2023-08-17T07:52:40;7.63;;;5.55;;
52041;SDS011;38052;45.944;13.624;2023-08-17T07:55:06;8.00;;;5.10;;
52041;SDS011;38052;45.944;13.624;2023-08-17T07:57:32;6.57;;;5.97;;
52041;SDS011;38052;45.944;13.624;2023-08-17T07:59:59;7.03;;;6.00;;
52041;SDS011;38052;45.944;13.624;2023-08-17T08:02:25;9.90;;;5.32;;
52041;SDS011;38052;45.944;13.624;2023-08-17T08:04:52;7.07;;;5.68;;
52041;SDS011;38052;45.944;13.624;2023-08-17T08:07:19;6.90;;;5.30;;
52041;SDS011;38052;45.944;13.624;2023-08-17T08:09:45;11.48;;;5.22;;
52041;SDS011;38052;45.944;13.624;2023-08-17T08:12:12;11.25;;;6.10;;
52041;SDS011;38052;45.944;13.624;2023-08-17T08:14:39;7.38;;;5.28;;
52041;SDS011;38052;45.944;13.624;2023-08-17T08:17:05;6.13;;;5.13;;
52041;SDS011;38052;45.944;13.624;2023-08-17T08:19:32;6.82;;;5.07;;
52041;SDS011;38052;45.944;13.624;2023-08-17T08:21:58;5.95;;;5.30;;
52041;SDS011;38052;45.944;13.624;2023-08-17T08:24:25;8.57;;;6.15;;
52041;SDS011;38052;45.944;13.624;2023-08-17T08:26:56;11.27;;;4.75;;
52041;SDS011;38052;45.944;13.624;2023-08-17T08:29:22;8.32;;;5.78;;
52041;SDS011;38052;45.944;13.624;2023-08-17T08:31:49;9.77;;;5.50;;
52041;SDS011;38052;45.944;13.624;2023-08-17T08:34:15;5.78;;;4.95;;
52041;SDS011;38052;45.944;13.624;2023-08-17T08:36:42;7.78;;;4.93;;
52041;SDS011;38052;45.944;13.624;2023-08-17T08:39:08;5.72;;;5.13;;
52041;SDS011;38052;45.944;13.624;2023-08-17T08:41:35;5.80;;;5.13;;
52041;SDS011;38052;45.944;13.624;2023-08-17T08:44:03;4.97;;;4.47;;
52041;SDS011;38052;45.944;13.624;2023-08-17T08:46:30;6.82;;;5.15;;
52041;SDS011;38052;45.944;13.624;2023-08-17T08:48:57;8.60;;;5.43;;
52041;SDS011;38052;45.944;13.624;2023-08-17T08:51:25;9.15;;;4.95;;
52041;SDS011;38052;45.944;13.624;2023-08-17T08:53:57;6.63;;;4.78;;
52041;SDS011;38052;45.944;13.624;2023-08-17T08:56:27;8.40;;;5.05;;
52041;SDS011;38052;45.944;13.624;2023-08-17T08:58:54;5.18;;;4.68;;
52041;SDS011;38052;45.944;13.624;2023-08-17T09:01:21;9.68;;;5.10;;
52041;SDS011;38052;45.944;13.624;2023-08-17T09:03:47;6.78;;;4.03;;
52041;SDS011;38052;45.944;13.624;2023-08-17T09:06:14;7.85;;;4.28;;
52041;SDS011;38052;45.944;13.624;2023-08-17T09:08:41;9.52;;;4.57;;
52041;SDS011;38052;45.944;13.624;2023-08-17T09:11:07;8.18;;;4.68;;
52041;SDS011;38052;45.944;13.624;2023-08-17T09:13:34;6.78;;;4.60;;
52041;SDS011;38052;45.944;13.624;2023-08-17T09:16:00;9.02;;;4.88;;
52041;SDS011;38052;45.944;13.624;2023-08-17T09:18:26;4.15;;;3.70;;
52041;SDS011;38052;45.944;13.624;2023-08-17T09:20:53;6.15;;;4.65;;
52041;SDS011;38052;45.944;13.624;2023-08-17T09:23:21;5.25;;;3.92;;
52041;SDS011;38052;45.944;13.624;2023-08-17T09:25:48;5.70;;;4.32;;
52041;SDS011;38052;45.944;13.624;2023-08-17T09:28:16;6.97;;;4.07;;
52041;SDS011;38052;45.944;13.624;2023-08-17T09:30:52;7.90;;;4.05;;
52041;SDS011;38052;45.944;13.624;2023-08-17T09:33:25;4.18;;;3.40;;
52041;SDS011;38052;45.944;13.624;2023-08-17T09:35:52;4.78;;;4.00;;
52041;SDS011;38052;45.944;13.624;2023-08-17T09:38:18;7.97;;;3.75;;
52041;SDS011;38052;45.944;13.624;2023-08-17T09:40:45;5.60;;;3.97;;
52041;SDS011;38052;45.944;13.624;2023-08-17T09:43:11;5.57;;;3.30;;
52041;SDS011;38052;45.944;13.624;2023-08-17T09:45:38;7.32;;;4.15;;
52041;SDS011;38052;45.944;13.624;2023-08-17T09:48:05;6.38;;;4.35;;
52041;SDS011;38052;45.944;13.624;2023-08-17T09:50:31;6.07;;;4.15;;
52041;SDS011;38052;45.944;13.624;2023-08-17T09:52:58;3.65;;;3.35;;
52041;SDS011;38052;45.944;13.624;2023-08-17T09:55:24;4.72;;;3.22;;
52041;SDS011;38052;45.944;13.624;2023-08-17T09:57:51;6.57;;;3.88;;
52041;SDS011;38052;45.944;13.624;2023-08-17T10:00:20;6.13;;;3.20;;
52041;SDS011;38052;45.944;13.624;2023-08-17T10:02:50;4.57;;;3.92;;
52041;SDS011;38052;45.944;13.624;2023-08-17T10:05:20;5.50;;;3.17;;
52041;SDS011;38052;45.944;13.624;2023-08-17T10:07:47;5.28;;;3.65;;
52041;SDS011;38052;45.944;13.624;2023-08-17T10:10:14;6.45;;;3.75;;
52041;SDS011;38052;45.944;13.624;2023-08-17T10:12:44;6.57;;;3.50;;
52041;SDS011;38052;45.944;13.624;2023-08-17T10:15:11;3.78;;;3.47;;
52041;SDS011;38052;45.944;13.624;2023-08-17T10:18:13;4.22;;;3.25;;
52041;SDS011;38052;45.944;13.624;2023-08-17T10:20:31;4.50;;;3.15;;
52041;SDS011;38052;45.944;13.624;2023-08-17T10:23:15;3.75;;;3.45;;
52041;SDS011;38052;45.944;13.624;2023-08-17T10:25:43;3.38;;;3.08;;
52041;SDS011;38052;45.944;13.624;2023-08-17T10:28:10;7.65;;;3.92;;
52041;SDS011;38052;45.944;13.624;2023-08-17T10:30:37;4.95;;;3.42;;
52041;SDS011;38052;45.944;13.624;2023-08-17T10:33:04;6.03;;;4.10;;
52041;SDS011;38052;45.944;13.624;2023-08-17T10:35:31;6.80;;;3.50;;
52041;SDS011;38052;45.944;13.624;2023-08-17T10:37:58;4.00;;;3.55;;
52041;SDS011;38052;45.944;13.624;2023-08-17T10:40:28;5.55;;;4.00;;
52041;SDS011;38052;45.944;13.624;2023-08-17T10:42:55;3.53;;;3.22;;
52041;SDS011;38052;45.944;13.624;2023-08-17T10:45:31;7.00;;;3.95;;
52041;SDS011;38052;45.944;13.624;2023-08-17T10:48:00;5.45;;;3.50;;
52041;SDS011;38052;45.944;13.624;2023-08-17T10:50:58;5.57;;;3.53;;
52041;SDS011;38052;45.944;13.624;2023-08-17T10:53:25;5.32;;;3.85;;
52041;SDS011;38052;45.944;13.624;2023-08-17T10:55:51;4.00;;;3.20;;
52041;SDS011;38052;45.944;13.624;2023-08-17T10:58:23;5.70;;;3.45;;
52041;SDS011;38052;45.944;13.624;2023-08-17T11:00:53;3.38;;;3.08;;
52041;SDS011;38052;45.944;13.624;2023-08-17T11:03:20;4.10;;;3.70;;
52041;SDS011;38052;45.944;13.624;2023-08-17T11:05:53;4.70;;;3.97;;
52041;SDS011;38052;45.944;13.624;2023-08-17T11:13:26;8.30;;;4.15;;
52041;SDS011;38052;45.944;13.624;2023-08-17T11:15:53;3.80;;;3.50;;
52041;SDS011;38052;45.944;13.624;2023-08-17T11:18:19;7.32;;;3.85;;
52041;SDS011;38052;45.944;13.624;2023-08-17T11:20:46;5.40;;;3.97;;
52041;SDS011;38052;45.944;13.624;2023-08-17T11:23:13;4.50;;;3.58;;
52041;SDS011;38052;45.944;13.624;2023-08-17T11:25:40;6.03;;;3.95;;
52041;SDS011;38052;45.944;13.624;2023-08-17T11:28:07;6.30;;;3.75;;
52041;SDS011;38052;45.944;13.624;2023-08-17T11:30:34;5.72;;;3.97;;
52041;SDS011;38052;45.944;13.624;2023-08-17T11:33:02;5.55;;;3.55;;
52041;SDS011;38052;45.944;13.624;2023-08-17T11:35:28;4.22;;;3.83;;
52041;SDS011;38052;45.944;13.624;2023-08-17T11:37:55;5.95;;;3.83;;
52041;SDS011;38052;45.944;13.624;2023-08-17T11:40:21;3.72;;;3.42;;
52041;SDS011;38052;45.944;13.624;2023-08-17T11:42:48;6.05;;;3.80;;
52041;SDS011;38052;45.944;13.624;2023-08-17T11:45:14;6.15;;;3.83;;
52041;SDS011;38052;45.944;13.624;2023-08-17T11:47:41;3.55;;;3.25;;
52041;SDS011;38052;45.944;13.624;2023-08-17T11:50:11;4.78;;;3.65;;
52041;SDS011;38052;45.944;13.624;2023-08-17T11:52:38;6.18;;;3.47;;
52041;SDS011;38052;45.944;13.624;2023-08-17T11:55:05;4.80;;;4.30;;
52041;SDS011;38052;45.944;13.624;2023-08-17T11:57:31;6.13;;;3.22;;
52041;SDS011;38052;45.944;13.624;2023-08-17T12:00:01;5.35;;;3.85;;
52041;SDS011;38052;45.944;13.624;2023-08-17T12:02:51;4.40;;;3.10;;
52041;SDS011;38052;45.944;13.624;2023-08-17T12:07:44;3.17;;;2.88;;
52041;SDS011;38052;45.944;13.624;2023-08-17T12:10:11;4.60;;;4.20;;
52041;SDS011;38052;45.944;13.624;2023-08-17T12:12:38;3.28;;;2.85;;
52041;SDS011;38052;45.944;13.624;2023-08-17T12:15:05;4.30;;;3.15;;
52041;SDS011;38052;45.944;13.624;2023-08-17T12:17:31;3.72;;;3.42;;
52041;SDS011;38052;45.944;13.624;2023-08-17T12:19:58;5.72;;;3.95;;
52041;SDS011;38052;45.944;13.624;2023-08-17T12:22:25;4.40;;;3.17;;
52041;SDS011;38052;45.944;13.624;2023-08-17T12:24:51;4.22;;;3.83;;
52041;SDS011;38052;45.944;13.624;2023-08-17T12:27:18;4.40;;;3.92;;
52041;SDS011;38052;45.944;13.624;2023-08-17T12:29:48;5.15;;;3.33;;
52041;SDS011;38052;45.944;13.624;2023-08-17T12:32:15;5.22;;;3.53;;
52041;SDS011;38052;45.944;13.624;2023-08-17T12:34:41;6.18;;;3.70;;
52041;SDS011;38052;45.944;13.624;2023-08-17T12:37:18;5.25;;;3.45;;
52041;SDS011;38052;45.944;13.624;2023-08-17T12:39:44;3.85;;;3.53;;
52041;SDS011;38052;45.944;13.624;2023-08-17T12:42:11;5.63;;;3.13;;
52041;SDS011;38052;45.944;13.624;2023-08-17T12:44:38;5.45;;;3.78;;
52041;SDS011;38052;45.944;13.624;2023-08-17T12:47:05;4.38;;;3.70;;
52041;SDS011;38052;45.944;13.624;2023-08-17T12:52:07;7.90;;;3.38;;
52041;SDS011;38052;45.944;13.624;2023-08-17T12:54:34;4.60;;;3.92;;
52041;SDS011;38052;45.944;13.624;2023-08-17T12:57:00;3.50;;;3.20;;
52041;SDS011;38052;45.944;13.624;2023-08-17T12:59:27;3.83;;;3.08;;
52041;SDS011;38052;45.944;13.624;2023-08-17T13:01:54;4.50;;;3.45;;
52041;SDS011;38052;45.944;13.624;2023-08-17T13:04:20;3.97;;;3.67;;
52041;SDS011;38052;45.944;13.624;2023-08-17T13:06:46;4.45;;;3.63;;
52041;SDS011;38052;45.944;13.624;2023-08-17T13:09:13;6.50;;;3.45;;
52041;SDS011;38052;45.944;13.624;2023-08-17T13:11:41;3.72;;;3.28;;
52041;SDS011;38052;45.944;13.624;2023-08-17T13:14:07;5.30;;;3.97;;
52041;SDS011;38052;45.944;13.624;2023-08-17T13:16:34;4.80;;;3.58;;
52041;SDS011;38052;45.944;13.624;2023-08-17T13:19:00;4.30;;;3.83;;
52041;SDS011;38052;45.944;13.624;2023-08-17T13:21:27;6.22;;;3.55;;
52041;SDS011;38052;45.944;13.624;2023-08-17T13:23:53;5.18;;;3.50;;
52041;SDS011;38052;45.944;13.624;2023-08-17T13:26:21;4.28;;;3.30;;
52041;SDS011;38052;45.944;13.624;2023-08-17T13:28:47;5.00;;;3.42;;
52041;SDS011;38052;45.944;13.624;2023-08-17T13:31:14;4.63;;;4.05;;
52041;SDS011;38052;45.944;13.624;2023-08-17T13:33:40;4.55;;;3.38;;
52041;SDS011;38052;45.944;13.624;2023-08-17T13:36:07;3.72;;;3.40;;
52041;SDS011;38052;45.944;13.624;2023-08-17T13:38:33;3.95;;;3.55;;
52041;SDS011;38052;45.944;13.624;2023-08-17T13:41:00;4.78;;;3.83;;
52041;SDS011;38052;45.944;13.624;2023-08-17T13:43:27;4.68;;;3.13;;
52041;SDS011;38052;45.944;13.624;2023-08-17T13:45:53;5.63;;;3.95;;
52041;SDS011;38052;45.944;13.624;2023-08-17T13:48:20;5.13;;;3.65;;
52041;SDS011;38052;45.944;13.624;2023-08-17T13:50:46;4.88;;;4.20;;
52041;SDS011;38052;45.944;13.624;2023-08-17T13:53:12;7.88;;;4.03;;
52041;SDS011;38052;45.944;13.624;2023-08-17T13:55:39;4.25;;;3.47;;
52041;SDS011;38052;45.944;13.624;2023-08-17T13:58:05;4.63;;;4.18;;
52041;SDS011;38052;45.944;13.624;2023-08-17T14:00:35;4.32;;;3.75;;
52041;SDS011;38052;45.944;13.624;2023-08-17T14:03:01;6.05;;;3.45;;
52041;SDS011;38052;45.944;13.624;2023-08-17T14:05:27;5.70;;;3.70;;
52041;SDS011;38052;45.944;13.624;2023-08-17T14:07:54;5.22;;;4.57;;
52041;SDS011;38052;45.944;13.624;2023-08-17T14:10:20;5.07;;;3.78;;
52041;SDS011;38052;45.944;13.624;2023-08-17T14:12:46;6.70;;;4.50;;
52041;SDS011;38052;45.944;13.624;2023-08-17T14:15:13;6.85;;;4.00;;
52041;SDS011;38052;45.944;13.624;2023-08-17T14:17:39;7.32;;;4.20;;
52041;SDS011;38052;45.944;13.624;2023-08-17T14:20:06;5.28;;;3.75;;
52041;SDS011;38052;45.944;13.624;2023-08-17T14:22:33;4.75;;;4.28;;
52041;SDS011;38052;45.944;13.624;2023-08-17T14:25:00;7.13;;;4.07;;
52041;SDS011;38052;45.944;13.624;2023-08-17T14:27:26;5.25;;;3.75;;
52041;SDS011;38052;45.944;13.624;2023-08-17T14:29:53;6.15;;;4.50;;
52041;SDS011;38052;45.944;13.624;2023-08-17T14:32:19;6.25;;;4.53;;
52041;SDS011;38052;45.944;13.624;2023-08-17T14:34:46;7.22;;;4.57;;
52041;SDS011;38052;45.944;13.624;2023-08-17T14:37:12;5.88;;;4.80;;
52041;SDS011;38052;45.944;13.624;2023-08-17T14:39:38;5.00;;;4.55;;
52041;SDS011;38052;45.944;13.624;2023-08-17T14:42:05;6.35;;;4.40;;
52041;SDS011;38052;45.944;13.624;2023-08-17T14:44:31;4.70;;;4.20;;